sensor_id;sensor_type;location;lat;lon;timestamp;pressure;altitude;pressure_sealevel;temperature;humidity
40315;BME280;26021;45.640;11.302;2022-11-23T00:01:20;97016.56;;;7.58;100.00
40315;BME280;26021;45.640;11.302;2022-11-23T00:03:48;97022.91;;;7.63;100.00
40315;BME280;26021;45.640;11.302;2022-11-23T00:06:14;97025.59;;;7.77;100.00
40315;BME280;26021;45.640;11.302;2022-11-23T00:08:40;96975.13;;;7.16;100.00
40315;BME280;26021;45.640;11.302;2022-11-23T00:11:06;97035.59;;;7.55;100.00
40315;BME280;26021;45.640;11.302;2022-11-23T00:13:31;97031.84;;;7.43;100.00
40315;BME280;26021;45.640;11.302;2022-11-23T00:16:00;97027.81;;;7.60;100.00
40315;BME280;26021;45.640;11.302;2022-11-23T00:18:25;97014.50;;;7.47;100.00
40315;BME280;26021;45.640;11.302;2022-11-23T00:20:50;97028.25;;;7.63;100.00
40315;BME280;26021;45.640;11.302;2022-11-23T00:23:16;97026.91;;;7.26;100.00
40315;BME280;26021;45.640;11.302;2022-11-23T00:25:44;97027.91;;;7.25;100.00
40315;BME280;26021;45.640;11.302;2022-11-23T00:28:11;97035.28;;;7.30;100.00
40315;BME280;26021;45.640;11.302;2022-11-23T00:30:36;97037.75;;;7.31;100.00
40315;BME280;26021;45.640;11.302;2022-11-23T00:33:02;97045.75;;;7.38;100.00
40315;BME280;26021;45.640;11.302;2022-11-23T00:35:27;97050.13;;;7.65;100.00
40315;BME280;26021;45.640;11.302;2022-11-23T00:37:52;97044.63;;;7.67;100.00
40315;BME280;26021;45.640;11.302;2022-11-23T00:40:18;97025.91;;;7.41;100.00
40315;BME280;26021;45.640;11.302;2022-11-23T00:42:43;97051.13;;;7.51;100.00
40315;BME280;26021;45.640;11.302;2022-11-23T00:45:09;97049.19;;;7.25;100.00
40315;BME280;26021;45.640;11.302;2022-11-23T00:47:35;97046.94;;;7.22;100.00
40315;BME280;26021;45.640;11.302;2022-11-23T00:50:00;97034.50;;;7.36;100.00
40315;BME280;26021;45.640;11.302;2022-11-23T00:52:25;97053.13;;;7.43;100.00
40315;BME280;26021;45.640;11.302;2022-11-23T00:54:51;97054.13;;;7.28;100.00
40315;BME280;26021;45.640;11.302;2022-11-23T00:57:16;97050.09;;;7.46;100.00
40315;BME280;26021;45.640;11.302;2022-11-23T00:59:42;97058.28;;;7.44;100.00
40315;BME280;26021;45.640;11.302;2022-11-23T01:02:07;97054.16;;;7.42;100.00
40315;BME280;26021;45.640;11.302;2022-11-23T01:04:32;97060.25;;;7.29;100.00
40315;BME280;26021;45.640;11.302;2022-11-23T01:06:58;97063.47;;;7.11;100.00
40315;BME280;26021;45.640;11.302;2022-11-23T01:09:23;97059.56;;;7.07;100.00
40315;BME280;26021;45.640;11.302;2022-11-23T01:11:54;97064.28;;;7.12;100.00
40315;BME280;26021;45.640;11.302;2022-11-23T01:14:21;97064.47;;;7.10;100.00
40315;BME280;26021;45.640;11.302;2022-11-23T01:16:47;97055.25;;;7.06;100.00
40315;BME280;26021;45.640;11.302;2022-11-23T01:19:15;97062.16;;;6.94;100.00
40315;BME280;26021;45.640;11.302;2022-11-23T01:21:42;97071.13;;;6.86;100.00
40315;BME280;26021;45.640;11.302;2022-11-23T01:24:14;97062.34;;;6.92;100.00
40315;BME280;26021;45.640;11.302;2022-11-23T01:26:40;97072.16;;;6.92;100.00
40315;BME280;26021;45.640;11.302;2022-11-23T01:29:05;97073.38;;;6.89;100.00
40315;BME280;26021;45.640;11.302;2022-11-23T01:31:32;97075.03;;;6.90;100.00
40315;BME280;26021;45.640;11.302;2022-11-23T01:33:59;97073.34;;;6.83;100.00
40315;BME280;26021;45.640;11.302;2022-11-23T01:36:30;97073.84;;;6.99;100.00
40315;BME280;26021;45.640;11.302;2022-11-23T01:38:57;97080.13;;;6.92;100.00
40315;BME280;26021;45.640;11.302;2022-11-23T01:41:37;97086.41;;;6.78;100.00
40315;BME280;26021;45.640;11.302;2022-11-23T01:44:25;97089.06;;;6.78;100.00
40315;BME280;26021;45.640;11.302;2022-11-23T01:46:51;97089.72;;;6.86;100.00
40315;BME280;26021;45.640;11.302;2022-11-23T01:49:17;97022.69;;;6.56;100.00
40315;BME280;26021;45.640;11.302;2022-11-23T01:51:45;97093.63;;;6.90;100.00
40315;BME280;26021;45.640;11.302;2022-11-23T01:57:22;97100.63;;;6.98;100.00
40315;BME280;26021;45.640;11.302;2022-11-23T01:59:50;97113.03;;;6.91;100.00
40315;BME280;26021;45.640;11.302;2022-11-23T02:02:17;97110.53;;;6.83;100.00
40315;BME280;26021;45.640;11.302;2022-11-23T02:04:45;97063.38;;;6.57;100.00
40315;BME280;26021;45.640;11.302;2022-11-23T02:07:11;97114.56;;;6.72;100.00
40315;BME280;26021;45.640;11.302;2022-11-23T02:09:38;97071.31;;;6.57;100.00
40315;BME280;26021;45.640;11.302;2022-11-23T02:12:09;97115.13;;;6.95;100.00
40315;BME280;26021;45.640;11.302;2022-11-23T02:14:35;97119.38;;;6.90;100.00
40315;BME280;26021;45.640;11.302;2022-11-23T02:17:00;97116.53;;;6.91;100.00
40315;BME280;26021;45.640;11.302;2022-11-23T02:20:12;97119.72;;;6.80;100.00
40315;BME280;26021;45.640;11.302;2022-11-23T02:28:17;97131.56;;;6.78;100.00
40315;BME280;26021;45.640;11.302;2022-11-23T02:30:46;97136.03;;;6.71;100.00
40315;BME280;26021;45.640;11.302;2022-11-23T02:33:12;97141.41;;;6.84;100.00
40315;BME280;26021;45.640;11.302;2022-11-23T02:35:49;97136.22;;;6.69;100.00
40315;BME280;26021;45.640;11.302;2022-11-23T02:38:16;97146.88;;;6.76;100.00
40315;BME280;26021;45.640;11.302;2022-11-23T02:40:42;97146.44;;;6.72;100.00
40315;BME280;26021;45.640;11.302;2022-11-23T02:43:07;97063.28;;;6.16;100.00
40315;BME280;26021;45.640;11.302;2022-11-23T02:45:36;97149.59;;;6.82;100.00
40315;BME280;26021;45.640;11.302;2022-11-23T02:48:04;97146.97;;;6.61;100.00
40315;BME280;26021;45.640;11.302;2022-11-23T02:50:30;97152.31;;;6.67;100.00
40315;BME280;26021;45.640;11.302;2022-11-23T02:52:55;97156.41;;;6.42;100.00
40315;BME280;26021;45.640;11.302;2022-11-23T02:55:21;97139.59;;;6.35;100.00
40315;BME280;26021;45.640;11.302;2022-11-23T02:57:46;97105.28;;;6.33;100.00
40315;BME280;26021;45.640;11.302;2022-11-23T03:00:12;97132.31;;;6.44;100.00
40315;BME280;26021;45.640;11.302;2022-11-23T03:02:38;97031.81;;;5.70;100.00
40315;BME280;26021;45.640;11.302;2022-11-23T03:05:04;97149.75;;;6.53;100.00
40315;BME280;26021;45.640;11.302;2022-11-23T03:07:30;97149.91;;;6.45;100.00
40315;BME280;26021;45.640;11.302;2022-11-23T03:09:56;97154.88;;;6.54;100.00
40315;BME280;26021;45.640;11.302;2022-11-23T03:12:21;97161.28;;;6.38;100.00
40315;BME280;26021;45.640;11.302;2022-11-23T03:14:46;97151.66;;;6.59;100.00
40315;BME280;26021;45.640;11.302;2022-11-23T03:17:12;97124.19;;;6.24;100.00
40315;BME280;26021;45.640;11.302;2022-11-23T03:19:37;97158.06;;;6.43;100.00
40315;BME280;26021;45.640;11.302;2022-11-23T03:22:03;97160.31;;;6.46;100.00
40315;BME280;26021;45.640;11.302;2022-11-23T03:24:28;97169.63;;;6.35;100.00
40315;BME280;26021;45.640;11.302;2022-11-23T03:26:54;97146.06;;;6.26;100.00
40315;BME280;26021;45.640;11.302;2022-11-23T03:29:20;97172.44;;;6.27;100.00
40315;BME280;26021;45.640;11.302;2022-11-23T03:31:49;97170.53;;;6.21;100.00
40315;BME280;26021;45.640;11.302;2022-11-23T03:34:15;97171.09;;;6.17;100.00
40315;BME280;26021;45.640;11.302;2022-11-23T03:36:40;97167.81;;;6.15;100.00
40315;BME280;26021;45.640;11.302;2022-11-23T03:39:05;97182.97;;;5.99;100.00
40315;BME280;26021;45.640;11.302;2022-11-23T03:41:31;97186.00;;;5.96;100.00
40315;BME280;26021;45.640;11.302;2022-11-23T03:43:56;97174.38;;;5.97;100.00
40315;BME280;26021;45.640;11.302;2022-11-23T03:46:22;97176.03;;;5.98;100.00
40315;BME280;26021;45.640;11.302;2022-11-23T03:48:47;97184.38;;;5.95;100.00
40315;BME280;26021;45.640;11.302;2022-11-23T03:51:12;97184.41;;;5.87;100.00
40315;BME280;26021;45.640;11.302;2022-11-23T03:53:38;97192.19;;;5.89;100.00
40315;BME280;26021;45.640;11.302;2022-11-23T03:56:03;97186.00;;;5.82;100.00
40315;BME280;26021;45.640;11.302;2022-11-23T03:58:29;97192.69;;;5.78;100.00
40315;BME280;26021;45.640;11.302;2022-11-23T04:00:54;97188.13;;;5.71;100.00
40315;BME280;26021;45.640;11.302;2022-11-23T04:03:20;97142.06;;;5.58;100.00
40315;BME280;26021;45.640;11.302;2022-11-23T04:05:45;97192.72;;;5.63;100.00
40315;BME280;26021;45.640;11.302;2022-11-23T04:08:11;97141.84;;;5.38;100.00
40315;BME280;26021;45.640;11.302;2022-11-23T04:10:36;97184.66;;;5.71;100.00
40315;BME280;26021;45.640;11.302;2022-11-23T04:13:01;97179.94;;;5.52;100.00
40315;BME280;26021;45.640;11.302;2022-11-23T04:15:27;97185.81;;;5.32;100.00
40315;BME280;26021;45.640;11.302;2022-11-23T04:17:53;97183.63;;;5.36;100.00
40315;BME280;26021;45.640;11.302;2022-11-23T04:20:19;97188.34;;;5.55;100.00
40315;BME280;26021;45.640;11.302;2022-11-23T04:22:44;97184.88;;;5.40;100.00
40315;BME280;26021;45.640;11.302;2022-11-23T04:25:10;97189.34;;;5.54;100.00
40315;BME280;26021;45.640;11.302;2022-11-23T04:27:35;97189.56;;;5.38;100.00
40315;BME280;26021;45.640;11.302;2022-11-23T04:30:01;97190.84;;;5.42;100.00
40315;BME280;26021;45.640;11.302;2022-11-23T04:32:27;97206.00;;;5.48;100.00
40315;BME280;26021;45.640;11.302;2022-11-23T04:34:52;97199.25;;;5.46;100.00
40315;BME280;26021;45.640;11.302;2022-11-23T04:37:17;97204.34;;;5.47;100.00
40315;BME280;26021;45.640;11.302;2022-11-23T04:39:43;97182.06;;;5.12;100.00
40315;BME280;26021;45.640;11.302;2022-11-23T04:42:10;97211.41;;;5.25;100.00
40315;BME280;26021;45.640;11.302;2022-11-23T04:44:36;97212.47;;;5.01;100.00
40315;BME280;26021;45.640;11.302;2022-11-23T04:47:01;97225.00;;;5.07;100.00
40315;BME280;26021;45.640;11.302;2022-11-23T04:49:27;97215.84;;;4.95;100.00
40315;BME280;26021;45.640;11.302;2022-11-23T04:51:52;97220.31;;;4.95;100.00
40315;BME280;26021;45.640;11.302;2022-11-23T04:54:18;97223.06;;;5.01;100.00
40315;BME280;26021;45.640;11.302;2022-11-23T04:56:43;97215.84;;;4.81;100.00
40315;BME280;26021;45.640;11.302;2022-11-23T04:59:09;97224.00;;;5.08;100.00
40315;BME280;26021;45.640;11.302;2022-11-23T05:01:34;97194.38;;;4.90;100.00
40315;BME280;26021;45.640;11.302;2022-11-23T05:04:00;97167.66;;;4.47;100.00
40315;BME280;26021;45.640;11.302;2022-11-23T05:06:25;97238.84;;;4.80;100.00
40315;BME280;26021;45.640;11.302;2022-11-23T05:08:50;97233.66;;;4.49;100.00
40315;BME280;26021;45.640;11.302;2022-11-23T05:11:16;97239.81;;;4.41;100.00
40315;BME280;26021;45.640;11.302;2022-11-23T05:13:41;97238.59;;;4.52;100.00
40315;BME280;26021;45.640;11.302;2022-11-23T05:16:07;97246.75;;;4.65;100.00
40315;BME280;26021;45.640;11.302;2022-11-23T05:18:32;97249.81;;;4.77;100.00
40315;BME280;26021;45.640;11.302;2022-11-23T05:20:58;97236.34;;;4.64;100.00
40315;BME280;26021;45.640;11.302;2022-11-23T05:23:23;97248.13;;;4.61;100.00
40315;BME280;26021;45.640;11.302;2022-11-23T05:25:48;97252.03;;;4.42;100.00
40315;BME280;26021;45.640;11.302;2022-11-23T05:28:19;97179.19;;;4.32;100.00
40315;BME280;26021;45.640;11.302;2022-11-23T05:30:45;97250.31;;;4.58;100.00
40315;BME280;26021;45.640;11.302;2022-11-23T05:33:11;97250.38;;;4.50;100.00
40315;BME280;26021;45.640;11.302;2022-11-23T05:35:36;97221.13;;;4.20;100.00
40315;BME280;26021;45.640;11.302;2022-11-23T05:38:02;97252.88;;;4.43;100.00
40315;BME280;26021;45.640;11.302;2022-11-23T05:40:27;97229.47;;;4.09;100.00
40315;BME280;26021;45.640;11.302;2022-11-23T05:42:54;97250.22;;;4.20;100.00
40315;BME280;26021;45.640;11.302;2022-11-23T05:45:20;97177.84;;;3.90;100.00
40315;BME280;26021;45.640;11.302;2022-11-23T05:48:04;97254.47;;;4.29;100.00
40315;BME280;26021;45.640;11.302;2022-11-23T05:50:29;97252.81;;;4.28;100.00
40315;BME280;26021;45.640;11.302;2022-11-23T05:52:58;97240.22;;;4.07;100.00
40315;BME280;26021;45.640;11.302;2022-11-23T05:55:25;97251.69;;;4.23;100.00
40315;BME280;26021;45.640;11.302;2022-11-23T05:57:51;97234.88;;;4.15;100.00
40315;BME280;26021;45.640;11.302;2022-11-23T06:00:17;97255.03;;;4.39;100.00
40315;BME280;26021;45.640;11.302;2022-11-23T06:02:42;97261.09;;;4.25;100.00
40315;BME280;26021;45.640;11.302;2022-11-23T06:05:09;97223.41;;;4.00;100.00
40315;BME280;26021;45.640;11.302;2022-11-23T06:07:35;97219.00;;;3.93;100.00
40315;BME280;26021;45.640;11.302;2022-11-23T06:10:01;97189.25;;;3.60;100.00
40315;BME280;26021;45.640;11.302;2022-11-23T06:12:27;97261.72;;;4.04;100.00
40315;BME280;26021;45.640;11.302;2022-11-23T06:14:53;97265.16;;;4.13;100.00
40315;BME280;26021;45.640;11.302;2022-11-23T06:17:19;97261.44;;;3.99;100.00
40315;BME280;26021;45.640;11.302;2022-11-23T06:19:44;97235.06;;;3.83;100.00
40315;BME280;26021;45.640;11.302;2022-11-23T06:22:10;97255.28;;;4.07;100.00
40315;BME280;26021;45.640;11.302;2022-11-23T06:24:35;97269.38;;;3.99;100.00
40315;BME280;26021;45.640;11.302;2022-11-23T06:27:01;97269.06;;;3.94;100.00
40315;BME280;26021;45.640;11.302;2022-11-23T06:29:26;97281.78;;;3.99;100.00
40315;BME280;26021;45.640;11.302;2022-11-23T06:31:51;97279.91;;;4.07;100.00
40315;BME280;26021;45.640;11.302;2022-11-23T06:34:18;97203.88;;;3.70;100.00
40315;BME280;26021;45.640;11.302;2022-11-23T06:36:44;97288.78;;;4.14;100.00
40315;BME280;26021;45.640;11.302;2022-11-23T06:39:09;97297.72;;;4.13;100.00
40315;BME280;26021;45.640;11.302;2022-11-23T06:41:35;97304.41;;;4.01;100.00
40315;BME280;26021;45.640;11.302;2022-11-23T06:44:00;97309.75;;;3.93;100.00
40315;BME280;26021;45.640;11.302;2022-11-23T06:46:26;97305.88;;;4.04;100.00
40315;BME280;26021;45.640;11.302;2022-11-23T06:48:51;97315.06;;;4.16;100.00
40315;BME280;26021;45.640;11.302;2022-11-23T06:51:17;97267.34;;;3.70;100.00
40315;BME280;26021;45.640;11.302;2022-11-23T06:53:42;97323.75;;;4.02;100.00
40315;BME280;26021;45.640;11.302;2022-11-23T06:56:08;97328.97;;;4.18;100.00
40315;BME280;26021;45.640;11.302;2022-11-23T06:58:34;97335.28;;;4.09;100.00
40315;BME280;26021;45.640;11.302;2022-11-23T07:01:05;97336.91;;;4.18;100.00
40315;BME280;26021;45.640;11.302;2022-11-23T07:03:31;97332.09;;;4.22;100.00
40315;BME280;26021;45.640;11.302;2022-11-23T07:05:57;97295.09;;;3.82;100.00
40315;BME280;26021;45.640;11.302;2022-11-23T07:08:23;97332.25;;;4.20;100.00
40315;BME280;26021;45.640;11.302;2022-11-23T07:10:48;97334.28;;;4.41;100.00
40315;BME280;26021;45.640;11.302;2022-11-23T07:13:14;97336.25;;;4.47;100.00
40315;BME280;26021;45.640;11.302;2022-11-23T07:15:40;97333.03;;;4.60;100.00
40315;BME280;26021;45.640;11.302;2022-11-23T07:18:06;97341.69;;;4.54;100.00
40315;BME280;26021;45.640;11.302;2022-11-23T07:20:32;97352.50;;;4.67;100.00
40315;BME280;26021;45.640;11.302;2022-11-23T07:22:59;97358.88;;;4.81;100.00
40315;BME280;26021;45.640;11.302;2022-11-23T07:25:26;97353.91;;;5.00;100.00
40315;BME280;26021;45.640;11.302;2022-11-23T07:27:55;97355.09;;;4.98;100.00
40315;BME280;26021;45.640;11.302;2022-11-23T07:30:21;97356.91;;;4.97;100.00
40315;BME280;26021;45.640;11.302;2022-11-23T07:32:47;97363.63;;;5.08;100.00
40315;BME280;26021;45.640;11.302;2022-11-23T07:35:13;97362.53;;;5.40;100.00
40315;BME280;26021;45.640;11.302;2022-11-23T07:37:38;97354.84;;;5.45;100.00
40315;BME280;26021;45.640;11.302;2022-11-23T07:40:04;97361.81;;;5.61;100.00
40315;BME280;26021;45.640;11.302;2022-11-23T07:42:30;97301.81;;;5.45;100.00
40315;BME280;26021;45.640;11.302;2022-11-23T07:44:55;97344.91;;;5.62;100.00
40315;BME280;26021;45.640;11.302;2022-11-23T07:47:20;97370.94;;;5.96;100.00
40315;BME280;26021;45.640;11.302;2022-11-23T07:49:46;97381.00;;;6.15;100.00
40315;BME280;26021;45.640;11.302;2022-11-23T07:52:11;97205.00;;;5.49;100.00
40315;BME280;26021;45.640;11.302;2022-11-23T07:54:37;97381.84;;;6.52;100.00
40315;BME280;26021;45.640;11.302;2022-11-23T07:57:02;97384.88;;;6.49;100.00
40315;BME280;26021;45.640;11.302;2022-11-23T07:59:28;97390.53;;;6.60;100.00
40315;BME280;26021;45.640;11.302;2022-11-23T08:01:53;97385.19;;;6.75;100.00
40315;BME280;26021;45.640;11.302;2022-11-23T08:04:19;97396.28;;;6.79;100.00
40315;BME280;26021;45.640;11.302;2022-11-23T08:06:44;97384.81;;;6.99;100.00
40315;BME280;26021;45.640;11.302;2022-11-23T08:09:10;97389.38;;;7.27;100.00
40315;BME280;26021;45.640;11.302;2022-11-23T08:11:35;97378.56;;;7.07;100.00
40315;BME280;26021;45.640;11.302;2022-11-23T08:14:00;97387.00;;;7.39;100.00
40315;BME280;26021;45.640;11.302;2022-11-23T08:16:26;97391.31;;;7.40;100.00
40315;BME280;26021;45.640;11.302;2022-11-23T08:18:51;97396.53;;;7.48;100.00
40315;BME280;26021;45.640;11.302;2022-11-23T08:21:17;97198.03;;;6.35;100.00
40315;BME280;26021;45.640;11.302;2022-11-23T08:23:42;97397.53;;;7.47;100.00
40315;BME280;26021;45.640;11.302;2022-11-23T08:26:08;97395.50;;;7.77;100.00
40315;BME280;26021;45.640;11.302;2022-11-23T08:28:33;97401.56;;;7.92;100.00
40315;BME280;26021;45.640;11.302;2022-11-23T08:31:05;97395.38;;;7.85;100.00
40315;BME280;26021;45.640;11.302;2022-11-23T08:33:30;97396.47;;;7.97;100.00
40315;BME280;26021;45.640;11.302;2022-11-23T08:35:56;97402.97;;;8.22;100.00
40315;BME280;26021;45.640;11.302;2022-11-23T08:38:21;97407.63;;;8.14;100.00
40315;BME280;26021;45.640;11.302;2022-11-23T08:40:46;97406.78;;;8.13;100.00
40315;BME280;26021;45.640;11.302;2022-11-23T08:43:12;97408.63;;;8.41;100.00
40315;BME280;26021;45.640;11.302;2022-11-23T08:45:37;97411.28;;;8.34;100.00
40315;BME280;26021;45.640;11.302;2022-11-23T08:48:03;97411.81;;;8.64;100.00
40315;BME280;26021;45.640;11.302;2022-11-23T08:50:29;97366.09;;;8.19;100.00
40315;BME280;26021;45.640;11.302;2022-11-23T08:52:58;97350.03;;;8.41;100.00
40315;BME280;26021;45.640;11.302;2022-11-23T08:55:25;97429.72;;;8.90;100.00
40315;BME280;26021;45.640;11.302;2022-11-23T08:57:54;97422.38;;;8.92;100.00
40315;BME280;26021;45.640;11.302;2022-11-23T09:00:20;97421.78;;;9.03;100.00
40315;BME280;26021;45.640;11.302;2022-11-23T09:02:45;97366.28;;;8.66;100.00
40315;BME280;26021;45.640;11.302;2022-11-23T09:05:10;97431.66;;;9.16;100.00
40315;BME280;26021;45.640;11.302;2022-11-23T09:07:36;97422.47;;;9.45;100.00
40315;BME280;26021;45.640;11.302;2022-11-23T09:10:01;97430.44;;;9.32;100.00
40315;BME280;26021;45.640;11.302;2022-11-23T09:12:27;97433.53;;;9.42;100.00
40315;BME280;26021;45.640;11.302;2022-11-23T09:14:52;97396.34;;;9.01;100.00
40315;BME280;26021;45.640;11.302;2022-11-23T09:17:18;97435.19;;;9.43;100.00
40315;BME280;26021;45.640;11.302;2022-11-23T09:19:43;97345.22;;;8.84;100.00
40315;BME280;26021;45.640;11.302;2022-11-23T09:22:09;97426.56;;;9.41;100.00
40315;BME280;26021;45.640;11.302;2022-11-23T09:24:34;97429.44;;;9.59;100.00
40315;BME280;26021;45.640;11.302;2022-11-23T09:26:59;97424.53;;;9.69;100.00
40315;BME280;26021;45.640;11.302;2022-11-23T09:29:25;97425.56;;;9.81;100.00
40315;BME280;26021;45.640;11.302;2022-11-23T09:31:51;97433.34;;;10.09;100.00
40315;BME280;26021;45.640;11.302;2022-11-23T09:34:17;97434.75;;;10.32;99.21
40315;BME280;26021;45.640;11.302;2022-11-23T09:36:42;97435.56;;;10.45;100.00
40315;BME280;26021;45.640;11.302;2022-11-23T09:39:07;97432.03;;;10.58;98.84
40315;BME280;26021;45.640;11.302;2022-11-23T09:49:58;97430.56;;;10.69;92.72
40315;BME280;26021;45.640;11.302;2022-11-23T09:52:26;97428.84;;;10.81;86.73
40315;BME280;26021;45.640;11.302;2022-11-23T09:54:55;97358.47;;;10.42;87.60
40315;BME280;26021;45.640;11.302;2022-11-23T09:57:26;97435.44;;;10.78;90.37
40315;BME280;26021;45.640;11.302;2022-11-23T09:59:58;97434.38;;;10.86;88.13
40315;BME280;26021;45.640;11.302;2022-11-23T10:02:25;97430.22;;;10.97;84.64
40315;BME280;26021;45.640;11.302;2022-11-23T10:04:54;97422.59;;;11.00;84.11
40315;BME280;26021;45.640;11.302;2022-11-23T10:10:09;97420.56;;;11.34;80.34
40315;BME280;26021;45.640;11.302;2022-11-23T10:12:50;97422.84;;;11.30;81.06
40315;BME280;26021;45.640;11.302;2022-11-23T10:25:49;97427.78;;;11.58;82.55
40315;BME280;26021;45.640;11.302;2022-11-23T10:28:20;97417.41;;;11.68;83.50
40315;BME280;26021;45.640;11.302;2022-11-23T10:30:52;97409.91;;;11.77;79.04
40315;BME280;26021;45.640;11.302;2022-11-23T10:33:27;97426.34;;;11.87;78.87
40315;BME280;26021;45.640;11.302;2022-11-23T10:35:55;97420.38;;;11.85;76.89
40315;BME280;26021;45.640;11.302;2022-11-23T10:38:25;97411.91;;;11.88;77.67
40315;BME280;26021;45.640;11.302;2022-11-23T10:41:06;97414.44;;;11.76;79.81
40315;BME280;26021;45.640;11.302;2022-11-23T10:49:09;97408.25;;;11.83;84.49
40315;BME280;26021;45.640;11.302;2022-11-23T10:51:35;97310.38;;;11.37;76.72
40315;BME280;26021;45.640;11.302;2022-11-23T10:54:04;97405.03;;;11.99;82.48
40315;BME280;26021;45.640;11.302;2022-11-23T10:56:31;97411.69;;;12.15;80.82
40315;BME280;26021;45.640;11.302;2022-11-23T10:58:57;97353.03;;;11.82;78.67
40315;BME280;26021;45.640;11.302;2022-11-23T11:01:27;97346.47;;;11.53;78.63
40315;BME280;26021;45.640;11.302;2022-11-23T11:03:55;97410.69;;;11.91;77.83
40315;BME280;26021;45.640;11.302;2022-11-23T11:06:30;97411.44;;;11.98;78.01
40315;BME280;26021;45.640;11.302;2022-11-23T11:08:58;97413.91;;;12.18;81.20
40315;BME280;26021;45.640;11.302;2022-11-23T11:11:38;97405.13;;;12.11;76.16
40315;BME280;26021;45.640;11.302;2022-11-23T11:14:20;97392.09;;;11.96;73.37
40315;BME280;26021;45.640;11.302;2022-11-23T11:16:56;97409.22;;;12.13;73.59
40315;BME280;26021;45.640;11.302;2022-11-23T11:19:30;97410.56;;;12.22;74.85
40315;BME280;26021;45.640;11.302;2022-11-23T11:21:57;97406.84;;;12.41;75.58
40315;BME280;26021;45.640;11.302;2022-11-23T11:24:38;97406.94;;;12.53;72.95
40315;BME280;26021;45.640;11.302;2022-11-23T11:27:33;97408.44;;;12.67;72.05
40315;BME280;26021;45.640;11.302;2022-11-23T11:30:03;97405.44;;;12.76;72.13
40315;BME280;26021;45.640;11.302;2022-11-23T11:32:50;97398.13;;;12.83;70.80
40315;BME280;26021;45.640;11.302;2022-11-23T11:35:30;97398.00;;;12.78;74.11
40315;BME280;26021;45.640;11.302;2022-11-23T11:38:25;97403.47;;;13.01;73.45
40315;BME280;26021;45.640;11.302;2022-11-23T11:40:56;97401.81;;;13.18;73.55
40315;BME280;26021;45.640;11.302;2022-11-23T11:43:27;97395.19;;;13.32;72.11
40315;BME280;26021;45.640;11.302;2022-11-23T11:45:57;97400.19;;;13.29;71.50
40315;BME280;26021;45.640;11.302;2022-11-23T11:48:38;97394.03;;;13.10;68.06
40315;BME280;26021;45.640;11.302;2022-11-23T11:53:36;97394.63;;;13.12;68.94
40315;BME280;26021;45.640;11.302;2022-11-23T11:56:29;97393.63;;;12.95;71.39
40315;BME280;26021;45.640;11.302;2022-11-23T12:07:37;97392.84;;;13.24;75.68
40315;BME280;26021;45.640;11.302;2022-11-23T12:10:22;97389.81;;;13.32;71.90
40315;BME280;26021;45.640;11.302;2022-11-23T12:12:48;97390.50;;;13.28;72.85
40315;BME280;26021;45.640;11.302;2022-11-23T12:15:25;97387.75;;;13.16;75.20
40315;BME280;26021;45.640;11.302;2022-11-23T12:21:25;97380.06;;;13.50;74.99
40315;BME280;26021;45.640;11.302;2022-11-23T12:26:20;97383.09;;;13.42;73.88
40315;BME280;26021;45.640;11.302;2022-11-23T12:29:06;97335.56;;;13.12;72.52
40315;BME280;26021;45.640;11.302;2022-11-23T12:31:47;97387.72;;;13.34;74.39
40315;BME280;26021;45.640;11.302;2022-11-23T12:34:43;97393.28;;;13.21;72.94
40315;BME280;26021;45.640;11.302;2022-11-23T12:37:42;97393.06;;;13.23;74.82
40315;BME280;26021;45.640;11.302;2022-11-23T12:40:18;97390.38;;;13.23;74.83
40315;BME280;26021;45.640;11.302;2022-11-23T12:42:48;97391.91;;;13.30;74.25
40315;BME280;26021;45.640;11.302;2022-11-23T12:48:22;97380.75;;;13.15;73.49
40315;BME280;26021;45.640;11.302;2022-11-23T12:58:36;97375.78;;;13.72;73.13
40315;BME280;26021;45.640;11.302;2022-11-23T13:01:22;97378.81;;;13.87;74.20
40315;BME280;26021;45.640;11.302;2022-11-23T13:10:04;97375.66;;;13.67;77.70
40315;BME280;26021;45.640;11.302;2022-11-23T13:18:41;97374.25;;;13.76;75.37
40315;BME280;26021;45.640;11.302;2022-11-23T13:23:43;97375.03;;;13.42;78.89
40315;BME280;26021;45.640;11.302;2022-11-23T13:28:37;97383.41;;;13.33;81.98
40315;BME280;26021;45.640;11.302;2022-11-23T13:33:47;97388.53;;;13.35;82.03
40315;BME280;26021;45.640;11.302;2022-11-23T13:38:57;97395.09;;;13.09;81.96
40315;BME280;26021;45.640;11.302;2022-11-23T13:41:56;97391.72;;;13.14;79.20
40315;BME280;26021;45.640;11.302;2022-11-23T13:44:28;97396.63;;;12.87;84.16
40315;BME280;26021;45.640;11.302;2022-11-23T13:49:51;97401.94;;;12.75;85.60
40315;BME280;26021;45.640;11.302;2022-11-23T13:55:06;97409.72;;;12.65;88.18
40315;BME280;26021;45.640;11.302;2022-11-23T13:57:44;97396.22;;;12.35;87.93
40315;BME280;26021;45.640;11.302;2022-11-23T14:00:44;97412.97;;;12.49;88.24
40315;BME280;26021;45.640;11.302;2022-11-23T14:09:43;97411.19;;;11.74;95.54
40315;BME280;26021;45.640;11.302;2022-11-23T14:22:42;97429.16;;;11.67;97.33
40315;BME280;26021;45.640;11.302;2022-11-23T14:31:14;97415.44;;;10.88;100.00
40315;BME280;26021;45.640;11.302;2022-11-23T14:37:30;97442.91;;;11.08;100.00
40315;BME280;26021;45.640;11.302;2022-11-23T14:42:40;97447.75;;;10.86;100.00
40315;BME280;26021;45.640;11.302;2022-11-23T14:45:11;97446.59;;;10.69;100.00
40315;BME280;26021;45.640;11.302;2022-11-23T14:47:38;97381.13;;;10.27;100.00
40315;BME280;26021;45.640;11.302;2022-11-23T14:50:03;97460.19;;;10.61;100.00
40315;BME280;26021;45.640;11.302;2022-11-23T14:52:34;97459.41;;;10.47;100.00
40315;BME280;26021;45.640;11.302;2022-11-23T14:55:03;97463.53;;;10.36;100.00
40315;BME280;26021;45.640;11.302;2022-11-23T14:57:42;97435.00;;;10.04;100.00